createdAt,value
2023-04-26T00:00:09.013Z,11.10
2023-04-26T00:03:01.025Z,12.57
2023-04-26T00:05:30.056Z,11.65
2023-04-26T00:07:58.470Z,10.57
2023-04-26T00:10:27.217Z,10.52
2023-04-26T00:12:55.340Z,10.65
2023-04-26T00:15:23.890Z,9.48
2023-04-26T00:17:52.102Z,11.05
2023-04-26T00:20:22.003Z,9.88
2023-04-26T00:22:50.157Z,10.85
2023-04-26T00:25:18.703Z,10.40
2023-04-26T00:27:46.983Z,12.25
2023-04-26T00:30:16.270Z,10.43
2023-04-26T00:32:44.453Z,9.73
2023-04-26T00:35:12.912Z,9.27
2023-04-26T00:37:42.726Z,10.10
2023-04-26T00:40:12.510Z,15.02
2023-04-26T00:42:41.053Z,10.50
2023-04-26T00:45:10.163Z,11.20
2023-04-26T00:47:38.497Z,10.40
2023-04-26T00:50:08.680Z,8.57
2023-04-26T00:52:36.908Z,9.85
2023-04-26T00:55:07.906Z,11.18
2023-04-26T00:57:36.221Z,10.23
2023-04-26T01:00:05.306Z,11.73
2023-04-26T01:02:33.710Z,10.30
2023-04-26T01:05:02.338Z,9.30
2023-04-26T01:07:30.527Z,7.57
2023-04-26T01:09:59.702Z,6.47
2023-04-26T01:12:29.580Z,7.80
2023-04-26T01:14:58.407Z,8.85
2023-04-26T01:17:26.666Z,8.68
2023-04-26T01:19:55.428Z,11.30
2023-04-26T01:22:23.605Z,8.07
2023-04-26T01:24:56.489Z,9.25
2023-04-26T01:27:24.625Z,7.53
2023-04-26T01:29:53.134Z,6.47
2023-04-26T01:32:21.378Z,9.25
2023-04-26T01:34:49.785Z,11.73
2023-04-26T01:37:17.932Z,10.00
2023-04-26T01:39:46.625Z,10.57
2023-04-26T01:42:16.280Z,9.25
2023-04-26T01:44:44.814Z,10.30
2023-04-26T01:47:13.022Z,10.60
2023-04-26T01:49:41.703Z,9.07
2023-04-26T01:52:09.873Z,8.77
2023-04-26T01:54:38.548Z,7.90
2023-04-26T01:57:06.952Z,9.85
2023-04-26T01:59:36.726Z,9.05
2023-04-26T02:02:05.484Z,9.98
2023-04-26T02:04:34.117Z,10.15
2023-04-26T02:07:02.312Z,12.40
2023-04-26T02:09:30.880Z,11.30
2023-04-26T02:11:58.939Z,8.82
2023-04-26T02:14:27.459Z,9.20
2023-04-26T02:16:57.221Z,8.00
2023-04-26T02:19:26.003Z,12.35
2023-04-26T02:21:56.258Z,9.63
2023-04-26T02:24:24.872Z,10.38
2023-04-26T02:26:54.595Z,14.75
2023-04-26T02:29:40.007Z,10.77
2023-04-26T02:32:12.892Z,14.05
2023-04-26T02:34:41.776Z,12.02
2023-04-26T02:37:10.168Z,8.40
2023-04-26T02:39:38.655Z,11.00
2023-04-26T02:42:10.212Z,15.52
2023-04-26T02:44:39.705Z,13.93
2023-04-26T02:47:08.242Z,14.10
2023-04-26T02:49:38.184Z,13.63
2023-04-26T02:52:06.402Z,14.70
2023-04-26T02:54:34.894Z,14.63
2023-04-26T02:57:02.981Z,15.00
2023-04-26T02:59:31.578Z,10.93
2023-04-26T03:01:59.837Z,14.85
2023-04-26T03:04:28.944Z,14.57
2023-04-26T03:06:58.480Z,11.85
2023-04-26T03:09:26.977Z,10.63
2023-04-26T03:11:55.147Z,9.98
2023-04-26T03:14:23.659Z,13.90
2023-04-26T03:16:51.835Z,11.93
2023-04-26T03:19:21.325Z,8.60
2023-04-26T03:21:49.522Z,9.30
2023-04-26T03:24:19.358Z,12.75
2023-04-26T03:26:47.618Z,12.30
2023-04-26T03:29:16.317Z,12.02
2023-04-26T03:31:44.703Z,8.95
2023-04-26T03:34:13.302Z,12.95
2023-04-26T03:36:41.531Z,13.05
2023-04-26T03:39:10.372Z,14.30
2023-04-26T03:41:40.590Z,12.90
2023-04-26T03:44:09.107Z,10.93
2023-04-26T03:46:37.384Z,11.05
2023-04-26T03:49:05.755Z,8.63
2023-04-26T03:51:34.030Z,16.52
2023-04-26T03:54:02.560Z,11.35
2023-04-26T03:56:31.089Z,12.20
2023-04-26T03:59:01.039Z,12.88
2023-04-26T04:01:29.211Z,11.18
2023-04-26T04:03:57.810Z,10.85
2023-04-26T04:06:26.598Z,14.93
2023-04-26T04:08:55.504Z,14.35
2023-04-26T04:11:23.862Z,13.20
2023-04-26T04:13:52.322Z,13.13
2023-04-26T04:16:22.026Z,13.82
2023-04-26T04:18:50.896Z,10.98
2023-04-26T04:21:19.345Z,12.30
2023-04-26T04:23:48.232Z,11.52
2023-04-26T04:26:17.564Z,11.80
2023-04-26T04:28:47.302Z,11.95
2023-04-26T04:31:15.967Z,13.02
2023-04-26T04:33:45.901Z,10.70
2023-04-26T04:36:16.938Z,14.57
2023-04-26T04:41:13.451Z,10.73
2023-04-26T04:43:41.882Z,15.18
2023-04-26T04:46:12.733Z,10.18
2023-04-26T04:51:12.091Z,12.60
2023-04-26T04:53:40.752Z,12.85
2023-04-26T04:56:09.316Z,10.07
2023-04-26T04:58:38.135Z,12.48
2023-04-26T05:01:07.188Z,13.13
2023-04-26T05:03:35.844Z,10.25
2023-04-26T05:06:04.077Z,10.80
2023-04-26T05:08:33.869Z,15.00
2023-04-26T05:11:03.109Z,11.35
2023-04-26T05:13:31.592Z,15.52
2023-04-26T05:15:59.812Z,10.20
2023-04-26T05:18:28.361Z,15.38
2023-04-26T05:20:56.631Z,10.88
2023-04-26T05:23:25.091Z,12.10
2023-04-26T05:25:54.571Z,10.45
2023-04-26T05:28:23.184Z,8.95
2023-04-26T05:30:51.417Z,11.15
2023-04-26T05:33:19.962Z,8.93
2023-04-26T05:35:48.178Z,10.60
2023-04-26T05:38:16.749Z,8.70
2023-04-26T05:40:44.981Z,12.80
2023-04-26T05:43:14.759Z,8.05
2023-04-26T05:45:51.922Z,7.38
2023-04-26T05:48:21.885Z,10.63
2023-04-26T05:50:50.187Z,11.38
2023-04-26T05:53:19.254Z,7.22
2023-04-26T05:55:47.522Z,9.35
2023-04-26T05:58:17.459Z,6.97
2023-04-26T06:00:45.614Z,11.15
2023-04-26T06:03:14.350Z,8.85
2023-04-26T06:05:42.799Z,9.68
2023-04-26T06:08:11.352Z,8.50
2023-04-26T06:10:39.469Z,6.20
2023-04-26T06:13:07.998Z,9.95
2023-04-26T06:15:37.633Z,7.20
2023-04-26T06:18:06.530Z,6.85
2023-04-26T06:20:34.905Z,7.55
2023-04-26T06:23:03.365Z,7.50
2023-04-26T06:25:32.165Z,6.75
2023-04-26T06:28:00.837Z,4.95
2023-04-26T06:30:29.121Z,8.73
2023-04-26T06:33:00.330Z,6.18
2023-04-26T06:35:28.749Z,6.32
2023-04-26T06:37:57.294Z,6.28
2023-04-26T06:40:25.512Z,6.35
2023-04-26T06:42:54.512Z,7.25
2023-04-26T06:45:22.842Z,8.45
2023-04-26T06:47:52.774Z,7.95
2023-04-26T06:50:22.736Z,7.10
2023-04-26T06:52:51.598Z,5.93
2023-04-26T06:55:20.131Z,7.40
2023-04-26T06:57:48.799Z,6.30
2023-04-26T07:00:18.025Z,9.55
2023-04-26T07:02:47.137Z,7.07
2023-04-26T07:05:16.280Z,9.70
2023-04-26T07:07:46.240Z,9.40
2023-04-26T07:10:14.853Z,4.18
2023-04-26T07:12:43.409Z,4.85
2023-04-26T07:15:12.553Z,5.38
2023-04-26T07:17:41.245Z,5.47
2023-04-26T07:20:10.577Z,7.75
2023-04-26T07:22:39.615Z,6.78
2023-04-26T07:25:09.807Z,8.30
2023-04-26T07:27:38.620Z,5.93
2023-04-26T07:30:08.198Z,6.90
2023-04-26T07:32:37.030Z,5.15
2023-04-26T07:35:08.511Z,8.45
2023-04-26T07:37:37.079Z,6.20
2023-04-26T07:40:08.381Z,5.80
2023-04-26T07:42:38.402Z,6.22
2023-04-26T07:45:08.593Z,6.22
2023-04-26T07:47:37.340Z,8.83
2023-04-26T07:50:06.591Z,5.65
2023-04-26T07:52:36.135Z,6.82
2023-04-26T07:55:04.638Z,6.35
2023-04-26T07:57:33.209Z,8.18
2023-04-26T08:00:03.020Z,5.53
2023-04-26T08:02:43.301Z,8.88
2023-04-26T08:05:13.376Z,4.45
2023-04-26T08:07:42.418Z,3.88
2023-04-26T08:10:11.824Z,4.03
2023-04-26T08:12:40.827Z,4.88
2023-04-26T08:15:12.141Z,6.47
2023-04-26T08:17:41.697Z,5.15
2023-04-26T08:20:10.928Z,5.57
2023-04-26T08:22:39.480Z,7.90
2023-04-26T08:25:08.297Z,4.05
2023-04-26T08:27:37.540Z,6.40
2023-04-26T08:30:06.936Z,6.40
2023-04-26T08:32:37.104Z,5.65
2023-04-26T08:35:06.046Z,6.88
2023-04-26T08:37:35.874Z,4.95
2023-04-26T08:40:04.868Z,4.85
2023-04-26T08:42:34.712Z,3.30
2023-04-26T08:45:05.058Z,4.75
2023-04-26T08:47:42.550Z,5.05
2023-04-26T08:50:14.672Z,5.53
2023-04-26T08:52:46.662Z,3.10
2023-04-26T08:55:16.548Z,4.22
2023-04-26T08:57:45.569Z,6.70
2023-04-26T09:00:16.054Z,3.75
2023-04-26T09:02:48.647Z,3.67
2023-04-26T09:05:17.229Z,3.28
2023-04-26T09:07:47.018Z,6.07
2023-04-26T09:10:21.470Z,6.90
2023-04-26T09:12:53.723Z,4.15
2023-04-26T09:15:22.919Z,5.53
2023-04-26T09:17:53.321Z,4.57
2023-04-26T09:20:24.169Z,7.85
2023-04-26T09:22:54.296Z,6.38
2023-04-26T09:25:29.444Z,5.60
2023-04-26T09:27:58.906Z,14.38
2023-04-26T09:30:27.949Z,5.63
2023-04-26T09:32:59.813Z,5.00
2023-04-26T09:35:30.904Z,3.65
2023-04-26T09:38:07.891Z,4.07
2023-04-26T09:40:41.135Z,3.80
2023-04-26T09:43:11.742Z,7.07
2023-04-26T09:45:49.199Z,6.43
2023-04-26T09:48:26.188Z,4.93
2023-04-26T09:50:55.714Z,4.88
2023-04-26T09:53:28.962Z,4.25
2023-04-26T09:55:58.274Z,3.15
2023-04-26T09:58:27.155Z,4.35
2023-04-26T10:00:56.052Z,4.28
2023-04-26T10:03:27.356Z,4.38
2023-04-26T10:05:56.057Z,2.63
2023-04-26T10:08:24.876Z,4.10
2023-04-26T10:10:53.447Z,4.82
2023-04-26T10:13:22.723Z,6.53
2023-04-26T10:15:51.458Z,2.97
2023-04-26T10:18:20.569Z,4.18
2023-04-26T10:20:53.216Z,4.40
2023-04-26T10:23:25.871Z,4.63
2023-04-26T10:25:54.760Z,3.00
2023-04-26T10:29:02.154Z,5.93
2023-04-26T10:32:05.348Z,2.50
2023-04-26T10:34:36.401Z,3.03
2023-04-26T10:37:12.798Z,4.13
2023-04-26T10:39:42.228Z,1.83
2023-04-26T10:42:30.466Z,3.63
2023-04-26T10:44:59.906Z,5.60
2023-04-26T10:47:30.844Z,4.90
2023-04-26T10:50:07.457Z,4.38
2023-04-26T10:52:38.382Z,4.88
2023-04-26T10:57:52.769Z,4.13
2023-04-26T11:00:32.783Z,30.15
2023-04-26T11:03:06.662Z,16.83
2023-04-26T11:05:37.733Z,7.88
2023-04-26T11:08:09.619Z,6.30
2023-04-26T11:10:41.711Z,6.65
2023-04-26T11:13:10.242Z,8.80
2023-04-26T11:15:38.922Z,5.72
2023-04-26T11:18:07.725Z,2.55
2023-04-26T11:20:36.595Z,6.25
2023-04-26T11:23:05.118Z,3.42
2023-04-26T11:25:35.232Z,4.45
2023-04-26T11:28:04.234Z,3.58
2023-04-26T11:30:33.520Z,3.60
2023-04-26T11:33:02.060Z,3.65
2023-04-26T11:35:31.049Z,3.33
2023-04-26T11:38:00.380Z,6.00
2023-04-26T11:40:30.298Z,4.57
2023-04-26T11:43:03.085Z,2.83
2023-04-26T11:45:33.846Z,2.80
2023-04-26T11:48:03.814Z,3.72
2023-04-26T11:50:33.587Z,5.00
2023-04-26T11:53:03.419Z,3.75
2023-04-26T11:55:34.305Z,6.97
2023-04-26T11:58:11.862Z,3.90
2023-04-26T12:00:59.009Z,3.08
2023-04-26T12:03:32.562Z,3.80
2023-04-26T12:06:01.521Z,3.85
2023-04-26T12:08:30.030Z,4.53
2023-04-26T12:11:01.265Z,3.15
2023-04-26T12:13:33.051Z,3.38
2023-04-26T12:16:02.639Z,3.38
2023-04-26T12:18:33.846Z,4.25
2023-04-26T12:21:02.613Z,5.10
2023-04-26T12:23:39.430Z,5.80
2023-04-26T12:26:11.186Z,3.63
2023-04-26T12:31:10.314Z,3.83
2023-04-26T12:33:38.772Z,4.15
2023-04-26T12:36:11.417Z,3.10
2023-04-26T12:38:40.494Z,5.53
2023-04-26T12:41:09.395Z,7.38
2023-04-26T12:43:37.809Z,4.05
2023-04-26T12:46:07.733Z,3.05
2023-04-26T12:48:36.334Z,7.60
2023-04-26T12:51:08.060Z,3.25
2023-04-26T12:53:36.908Z,3.28
2023-04-26T12:56:06.098Z,3.42
2023-04-26T12:58:34.617Z,8.57
2023-04-26T13:01:03.296Z,3.95
2023-04-26T13:03:33.255Z,4.10
2023-04-26T13:06:02.290Z,4.65
2023-04-26T13:08:32.834Z,2.10
2023-04-26T13:11:01.445Z,2.72
2023-04-26T13:13:42.270Z,2.05
2023-04-26T13:16:13.296Z,3.42
2023-04-26T13:18:43.336Z,3.08
2023-04-26T13:21:11.898Z,3.30
2023-04-26T13:23:40.370Z,2.10
2023-04-26T13:26:09.075Z,3.42
2023-04-26T13:28:37.670Z,3.83
2023-04-26T13:31:06.584Z,2.35
2023-04-26T13:33:34.946Z,4.78
2023-04-26T13:36:05.245Z,2.28
2023-04-26T13:38:33.589Z,6.82
2023-04-26T13:41:02.555Z,5.40
2023-04-26T13:43:30.880Z,4.07
2023-04-26T13:46:01.554Z,4.95
2023-04-26T13:48:29.845Z,6.28
2023-04-26T13:50:59.033Z,2.35
2023-04-26T13:53:28.787Z,5.55
2023-04-26T13:55:57.770Z,6.53
2023-04-26T13:58:26.336Z,9.00
2023-04-26T14:00:54.913Z,10.13
2023-04-26T14:03:23.439Z,3.65
2023-04-26T14:05:52.072Z,4.90
2023-04-26T14:08:20.502Z,4.75
2023-04-26T14:10:50.380Z,3.42
2023-04-26T14:13:18.686Z,3.40
2023-04-26T14:15:47.538Z,2.75
2023-04-26T14:18:16.070Z,3.00
2023-04-26T14:20:45.059Z,4.20
2023-04-26T14:23:13.422Z,3.05
2023-04-26T14:25:42.537Z,3.90
2023-04-26T14:28:12.679Z,2.10
2023-04-26T14:30:41.271Z,4.00
2023-04-26T14:33:09.568Z,3.20
2023-04-26T14:35:38.236Z,3.03
2023-04-26T14:38:06.619Z,3.97
2023-04-26T14:40:35.380Z,5.28
2023-04-26T14:43:03.783Z,2.20
2023-04-26T14:45:43.973Z,2.80
2023-04-26T14:48:13.113Z,4.23
2023-04-26T14:50:41.889Z,4.57
2023-04-26T14:53:11.223Z,3.63
2023-04-26T14:55:39.752Z,2.55
2023-04-26T14:58:08.677Z,2.30
2023-04-26T15:00:39.157Z,4.28
2023-04-26T15:03:07.849Z,2.97
2023-04-26T15:05:36.546Z,3.53
2023-04-26T15:08:05.281Z,3.15
2023-04-26T15:10:34.055Z,3.13
2023-04-26T15:13:02.505Z,2.85
2023-04-26T15:15:31.320Z,2.90
2023-04-26T15:18:01.970Z,7.00
2023-04-26T15:20:30.879Z,4.53
2023-04-26T15:22:59.132Z,2.38
2023-04-26T15:25:27.768Z,4.15
2023-04-26T15:27:57.523Z,5.65
2023-04-26T15:30:25.995Z,2.88
2023-04-26T15:32:54.307Z,2.45
2023-04-26T15:35:25.219Z,3.92
2023-04-26T15:37:54.180Z,5.05
2023-04-26T15:40:22.995Z,5.07
2023-04-26T15:42:52.036Z,5.97
2023-04-26T15:45:20.657Z,4.60
2023-04-26T15:47:49.127Z,3.08
2023-04-26T15:50:17.871Z,3.25
2023-04-26T15:52:47.668Z,2.78
2023-04-26T15:55:16.576Z,3.00
2023-04-26T15:57:48.386Z,4.88
2023-04-26T16:00:19.825Z,4.13
2023-04-26T16:02:48.346Z,3.17
2023-04-26T16:05:17.527Z,6.78
2023-04-26T16:07:47.382Z,7.80
2023-04-26T16:10:17.315Z,5.28
2023-04-26T16:12:45.610Z,5.72
2023-04-26T16:15:14.569Z,4.65
2023-04-26T16:17:42.916Z,5.78
2023-04-26T16:20:12.291Z,4.03
2023-04-26T16:22:40.816Z,4.00
2023-04-26T16:25:11.202Z,3.38
2023-04-26T16:27:39.440Z,4.60
2023-04-26T16:30:09.897Z,4.68
2023-04-26T16:32:38.311Z,5.97
2023-04-26T16:35:09.076Z,4.43
2023-04-26T16:37:39.380Z,2.85
2023-04-26T16:40:11.710Z,2.95
2023-04-26T16:42:43.364Z,4.35
2023-04-26T16:45:16.045Z,4.72
2023-04-26T16:47:45.063Z,18.05
2023-04-26T16:50:13.865Z,29.00
2023-04-26T16:52:42.709Z,6.95
2023-04-26T16:55:13.042Z,7.03
2023-04-26T16:57:42.130Z,9.40
2023-04-26T17:00:12.252Z,5.95
2023-04-26T17:02:42.111Z,4.78
2023-04-26T17:05:11.439Z,4.40
2023-04-26T17:07:39.894Z,4.38
2023-04-26T17:10:09.488Z,4.35
2023-04-26T17:12:39.346Z,5.72
2023-04-26T17:15:08.695Z,8.13
2023-04-26T17:17:37.539Z,6.50
2023-04-26T17:20:10.122Z,4.15
2023-04-26T17:22:39.600Z,5.60
2023-04-26T17:25:09.140Z,6.28
2023-04-26T17:27:38.876Z,6.07
2023-04-26T17:30:08.790Z,6.88
2023-04-26T17:32:37.323Z,4.82
2023-04-26T17:35:07.691Z,5.28
2023-04-26T17:37:36.086Z,6.15
2023-04-26T17:40:07.782Z,5.20
2023-04-26T17:45:07.553Z,7.35
2023-04-26T17:47:35.823Z,10.30
2023-04-26T17:50:04.529Z,12.55
2023-04-26T17:52:32.832Z,23.75
2023-04-26T17:55:01.684Z,17.52
2023-04-26T17:57:30.192Z,8.63
2023-04-26T17:59:58.849Z,8.82
2023-04-26T18:02:28.584Z,7.40
2023-04-26T18:04:57.538Z,8.65
2023-04-26T18:07:26.216Z,11.38
2023-04-26T18:09:54.871Z,6.78
2023-04-26T18:12:23.230Z,31.35
2023-04-26T18:14:52.382Z,104.38
2023-04-26T18:17:20.937Z,49.17
2023-04-26T18:19:50.979Z,31.15
2023-04-26T18:22:19.431Z,51.53
2023-04-26T18:24:48.234Z,44.45
2023-04-26T18:27:16.725Z,22.33
2023-04-26T18:29:45.288Z,21.75
2023-04-26T18:32:13.751Z,10.98
2023-04-26T18:34:42.408Z,10.73
2023-04-26T18:37:12.045Z,22.75
2023-04-26T18:39:40.628Z,15.43
2023-04-26T18:42:08.961Z,23.48
2023-04-26T18:44:37.717Z,10.90
2023-04-26T18:47:06.315Z,9.55
2023-04-26T18:49:35.077Z,10.23
2023-04-26T18:52:03.935Z,16.83
2023-04-26T18:54:34.902Z,16.08
2023-04-26T18:57:03.645Z,13.30
2023-04-26T18:59:32.634Z,11.05
2023-04-26T19:02:01.746Z,8.23
2023-04-26T19:04:30.766Z,11.85
2023-04-26T19:07:00.865Z,11.07
2023-04-26T19:09:39.681Z,11.57
2023-04-26T19:12:16.833Z,14.50
2023-04-26T19:14:45.588Z,12.40
2023-04-26T19:17:13.906Z,17.20
2023-04-26T19:19:42.533Z,14.07
2023-04-26T19:22:10.983Z,14.57
2023-04-26T19:24:39.563Z,16.65
2023-04-26T19:27:07.842Z,14.93
2023-04-26T19:29:37.911Z,13.90
2023-04-26T19:32:07.201Z,17.35
2023-04-26T19:34:38.931Z,12.35
2023-04-26T19:37:07.304Z,14.38
2023-04-26T19:39:36.020Z,15.77
2023-04-26T19:42:04.885Z,13.40
2023-04-26T19:44:33.576Z,16.98
2023-04-26T19:47:03.505Z,15.07
2023-04-26T19:49:32.363Z,19.38
2023-04-26T19:52:02.028Z,25.83
2023-04-26T19:54:30.678Z,28.95
2023-04-26T19:56:59.113Z,30.02
2023-04-26T19:59:27.801Z,28.80
2023-04-26T20:01:56.199Z,26.35
2023-04-26T20:04:26.454Z,21.40
2023-04-26T20:06:54.978Z,22.23
2023-04-26T20:09:23.510Z,19.10
2023-04-26T20:11:52.025Z,18.30
2023-04-26T20:14:20.693Z,19.80
2023-04-26T20:16:49.200Z,19.77
2023-04-26T20:19:17.830Z,20.92
2023-04-26T20:21:47.626Z,20.15
2023-04-26T20:24:16.590Z,20.70
2023-04-26T20:26:45.031Z,18.40
2023-04-26T20:29:13.672Z,23.08
2023-04-26T20:31:42.199Z,21.13
2023-04-26T20:34:10.865Z,20.75
2023-04-26T20:36:39.365Z,27.08
2023-04-26T20:39:10.798Z,24.30
2023-04-26T20:41:39.273Z,22.50
2023-04-26T20:44:07.956Z,26.77
2023-04-26T20:46:36.374Z,22.65
2023-04-26T20:49:06.881Z,18.55
2023-04-26T20:51:35.313Z,18.50
2023-04-26T20:54:03.950Z,18.75
2023-04-26T20:56:33.630Z,19.13
2023-04-26T20:59:02.195Z,18.67
2023-04-26T21:01:30.734Z,23.42
2023-04-26T21:03:59.351Z,23.15
2023-04-26T21:06:28.713Z,19.85
2023-04-26T21:08:57.488Z,19.00
2023-04-26T21:11:26.005Z,20.10
2023-04-26T21:13:56.149Z,22.55
2023-04-26T21:16:24.550Z,18.33
2023-04-26T21:18:53.045Z,19.13
2023-04-26T21:21:21.413Z,21.75
2023-04-26T21:23:50.024Z,18.45
2023-04-26T21:26:18.585Z,22.55
2023-04-26T21:28:47.145Z,30.15
2023-04-26T21:31:16.969Z,29.40
2023-04-26T21:33:45.641Z,20.02
2023-04-26T21:36:13.832Z,20.73
2023-04-26T21:38:42.452Z,19.27
2023-04-26T21:41:10.733Z,19.17
2023-04-26T21:43:39.338Z,19.75
2023-04-26T21:46:08.196Z,13.13
2023-04-26T21:48:38.934Z,20.38
2023-04-26T21:51:07.937Z,17.38
2023-04-26T21:53:36.518Z,16.90
2023-04-26T21:56:06.319Z,16.02
2023-04-26T21:58:34.947Z,14.57
2023-04-26T22:01:09.606Z,17.42
2023-04-26T22:03:39.975Z,16.60
2023-04-26T22:06:09.661Z,15.15
2023-04-26T22:08:38.735Z,17.75
2023-04-26T22:11:07.025Z,15.85
2023-04-26T22:13:35.898Z,12.55
2023-04-26T22:16:04.538Z,17.63
2023-04-26T22:18:33.360Z,14.52
2023-04-26T22:21:03.020Z,15.77
2023-04-26T22:23:32.234Z,15.65
2023-04-26T22:26:00.784Z,17.23
2023-04-26T22:28:29.270Z,18.13
2023-04-26T22:30:57.751Z,18.58
2023-04-26T22:33:26.336Z,17.35
2023-04-26T22:35:58.030Z,20.15
2023-04-26T22:38:28.051Z,27.27
2023-04-26T22:40:56.356Z,21.80
2023-04-26T22:43:24.937Z,18.55
2023-04-26T22:45:53.246Z,21.05
2023-04-26T22:48:21.851Z,22.98
2023-04-26T22:50:50.747Z,21.45
2023-04-26T22:53:19.276Z,21.35
2023-04-26T22:55:51.857Z,21.55
2023-04-26T22:58:20.328Z,18.58
2023-04-26T23:00:48.485Z,17.15
2023-04-26T23:03:17.171Z,16.85
2023-04-26T23:05:45.705Z,20.27
2023-04-26T23:08:14.151Z,20.95
2023-04-26T23:10:42.336Z,19.70
2023-04-26T23:13:12.229Z,16.58
2023-04-26T23:15:40.477Z,20.65
2023-04-26T23:18:09.646Z,18.73
2023-04-26T23:20:38.092Z,19.23
2023-04-26T23:23:06.745Z,18.23
2023-04-26T23:25:35.090Z,21.88
2023-04-26T23:28:03.655Z,16.35
2023-04-26T23:30:33.260Z,15.73
2023-04-26T23:33:01.905Z,20.17
2023-04-26T23:35:30.238Z,17.52
2023-04-26T23:37:58.774Z,18.23
2023-04-26T23:40:27.155Z,17.30
2023-04-26T23:42:55.867Z,20.33
2023-04-26T23:45:24.159Z,20.20
2023-04-26T23:47:54.405Z,17.95
2023-04-26T23:50:23.004Z,17.45
2023-04-26T23:52:51.542Z,19.08
2023-04-26T23:55:19.972Z,21.73
2023-04-26T23:57:48.585Z,20.13
